createdAt,value
2018-10-05T00:02:07.168Z,70.00
2018-10-05T00:04:34.741Z,70.20
2018-10-05T00:07:02.381Z,70.30
2018-10-05T00:09:29.917Z,70.70
2018-10-05T00:11:57.464Z,70.60
2018-10-05T00:14:24.981Z,70.70
2018-10-05T00:16:52.475Z,70.70
2018-10-05T00:19:20.089Z,70.90
2018-10-05T00:21:47.603Z,70.70
2018-10-05T00:24:15.137Z,70.60
2018-10-05T00:26:42.661Z,70.30
2018-10-05T00:29:10.265Z,70.40
2018-10-05T00:31:37.868Z,70.40
2018-10-05T00:34:05.420Z,70.70
2018-10-05T00:36:32.926Z,70.70
2018-10-05T00:39:00.526Z,70.50
2018-10-05T00:41:28.057Z,70.80
2018-10-05T00:43:55.640Z,71.00
2018-10-05T00:46:23.202Z,71.20
2018-10-05T00:48:50.860Z,71.20
2018-10-05T00:51:18.402Z,71.20
2018-10-05T00:53:45.950Z,71.00
2018-10-05T00:56:13.465Z,70.90
2018-10-05T00:58:40.996Z,70.80
2018-10-05T01:01:08.540Z,70.40
2018-10-05T01:03:36.131Z,70.30
2018-10-05T01:06:03.765Z,70.40
2018-10-05T01:08:31.349Z,70.50
2018-10-05T01:10:59.086Z,70.40
2018-10-05T01:13:26.675Z,70.60
2018-10-05T01:15:54.266Z,70.70
2018-10-05T01:18:21.789Z,70.70
2018-10-05T01:20:49.429Z,70.70
2018-10-05T01:23:17.256Z,70.60
2018-10-05T01:25:44.835Z,70.50
2018-10-05T01:28:12.445Z,70.50
2018-10-05T01:30:39.993Z,70.50
2018-10-05T01:33:07.569Z,70.70
2018-10-05T01:35:35.133Z,70.90
2018-10-05T01:38:02.717Z,71.10
2018-10-05T01:40:30.345Z,70.90
2018-10-05T01:42:57.912Z,70.50
2018-10-05T01:45:25.461Z,70.60
2018-10-05T01:47:52.993Z,70.70
2018-10-05T01:50:20.574Z,71.00
2018-10-05T01:52:48.129Z,71.00
2018-10-05T01:55:15.651Z,70.90
2018-10-05T01:57:43.183Z,70.90
2018-10-05T02:00:10.840Z,70.90
2018-10-05T02:02:38.706Z,70.60
2018-10-05T02:05:06.482Z,70.50
2018-10-05T02:07:34.049Z,70.40
2018-10-05T02:10:01.574Z,70.40
2018-10-05T02:12:29.127Z,70.50
2018-10-05T02:14:56.713Z,70.70
2018-10-05T02:17:24.272Z,70.70
2018-10-05T02:19:51.842Z,70.70
2018-10-05T02:22:19.458Z,70.50
2018-10-05T02:24:46.965Z,70.50
2018-10-05T02:27:14.502Z,70.40
2018-10-05T02:29:42.077Z,70.50
2018-10-05T02:32:09.632Z,70.40
2018-10-05T02:34:37.179Z,70.50
2018-10-05T02:37:04.806Z,70.50
2018-10-05T02:39:32.382Z,70.20
2018-10-05T02:41:59.966Z,70.10
2018-10-05T02:44:27.563Z,70.60
2018-10-05T02:46:55.157Z,70.50
2018-10-05T02:49:22.684Z,70.60
2018-10-05T02:51:50.226Z,70.60
2018-10-05T02:54:17.736Z,70.60
2018-10-05T02:56:45.270Z,71.10
2018-10-05T02:59:12.805Z,71.50
2018-10-05T03:01:51.778Z,71.50
2018-10-05T03:04:19.384Z,72.00
2018-10-05T03:06:46.907Z,72.40
2018-10-05T03:09:14.457Z,72.70
2018-10-05T03:11:42.009Z,72.70
2018-10-05T03:14:09.563Z,72.70
2018-10-05T03:16:37.176Z,71.80
2018-10-05T03:19:04.707Z,71.70
2018-10-05T03:21:32.257Z,71.60
2018-10-05T03:23:59.788Z,71.70
2018-10-05T03:26:27.315Z,71.70
2018-10-05T03:28:54.833Z,71.60
2018-10-05T03:31:22.320Z,71.40
2018-10-05T03:33:49.853Z,71.60
2018-10-05T03:36:17.393Z,71.40
2018-10-05T03:38:44.968Z,71.30
2018-10-05T03:41:12.451Z,71.30
2018-10-05T03:43:39.967Z,70.60
2018-10-05T03:46:07.622Z,71.10
2018-10-05T03:48:35.211Z,71.10
2018-10-05T03:51:02.902Z,71.30
2018-10-05T03:53:30.469Z,71.10
2018-10-05T03:55:58.013Z,71.60
2018-10-05T03:58:25.535Z,71.40
2018-10-05T04:00:53.029Z,71.10
2018-10-05T04:03:20.563Z,71.00
2018-10-05T04:05:48.086Z,71.00
2018-10-05T04:08:15.634Z,70.90
2018-10-05T04:10:43.208Z,70.90
2018-10-05T04:13:10.902Z,70.80
2018-10-05T04:15:38.472Z,70.80
2018-10-05T04:18:06.013Z,70.70
2018-10-05T04:20:33.555Z,70.60
2018-10-05T04:23:01.039Z,70.70
2018-10-05T04:25:28.576Z,70.70
2018-10-05T04:27:56.142Z,70.80
2018-10-05T04:30:23.695Z,70.90
2018-10-05T04:32:51.259Z,70.80
2018-10-05T04:35:18.801Z,70.80
2018-10-05T04:37:46.398Z,70.80
2018-10-05T04:40:13.962Z,71.70
2018-10-05T04:42:41.468Z,71.90
2018-10-05T04:45:09.012Z,72.00
2018-10-05T04:47:36.661Z,71.60
2018-10-05T04:50:04.344Z,71.50
2018-10-05T04:52:32.035Z,71.70
2018-10-05T04:54:59.556Z,71.40
2018-10-05T04:57:27.072Z,71.30
2018-10-05T04:59:54.657Z,71.20
2018-10-05T05:02:22.269Z,70.90
2018-10-05T05:04:49.833Z,71.10
2018-10-05T05:07:17.338Z,70.80
2018-10-05T05:09:44.911Z,70.70
2018-10-05T05:12:12.506Z,70.70
2018-10-05T05:14:40.035Z,70.70
2018-10-05T05:17:07.669Z,70.90
2018-10-05T05:19:35.261Z,70.90
2018-10-05T05:22:02.781Z,70.70
2018-10-05T05:24:30.296Z,70.60
2018-10-05T05:26:57.847Z,70.70
2018-10-05T05:29:25.368Z,70.60
2018-10-05T05:31:52.921Z,71.20
2018-10-05T05:34:20.474Z,71.00
2018-10-05T05:36:48.095Z,71.20
2018-10-05T05:39:15.625Z,71.50
2018-10-05T05:41:43.283Z,71.70
2018-10-05T05:44:10.899Z,71.70
2018-10-05T05:46:38.528Z,71.50
2018-10-05T05:49:06.255Z,71.50
2018-10-05T05:51:33.862Z,71.50
2018-10-05T05:54:01.580Z,71.40
2018-10-05T05:56:29.068Z,71.40
2018-10-05T05:58:56.727Z,71.50
2018-10-05T06:01:24.270Z,72.00
2018-10-05T06:03:51.847Z,72.00
2018-10-05T06:06:19.397Z,71.80
2018-10-05T06:08:46.960Z,71.80
2018-10-05T06:11:14.541Z,72.20
2018-10-05T06:13:42.115Z,72.60
2018-10-05T06:16:09.845Z,72.60
2018-10-05T06:18:37.274Z,72.70
2018-10-05T06:21:04.994Z,72.80
2018-10-05T06:23:32.595Z,73.00
2018-10-05T06:26:00.234Z,73.30
2018-10-05T06:28:27.747Z,73.60
2018-10-05T06:30:55.496Z,74.10
2018-10-05T06:33:23.009Z,74.20
2018-10-05T06:35:50.517Z,74.20
2018-10-05T06:38:18.050Z,74.40
2018-10-05T06:40:45.595Z,74.60
2018-10-05T06:43:13.130Z,74.80
2018-10-05T06:45:40.779Z,74.90
2018-10-05T06:48:08.308Z,75.10
2018-10-05T06:50:35.830Z,75.20
2018-10-05T06:53:03.401Z,75.20
2018-10-05T06:55:31.036Z,75.40
2018-10-05T06:57:58.577Z,75.50
2018-10-05T07:00:26.156Z,75.50
2018-10-05T07:02:53.657Z,75.50
2018-10-05T07:05:22.093Z,75.50
2018-10-05T07:07:49.743Z,75.70
2018-10-05T07:10:17.224Z,75.70
2018-10-05T07:12:44.711Z,75.90
2018-10-05T07:15:12.269Z,76.10
2018-10-05T07:17:39.850Z,76.00
2018-10-05T07:20:07.465Z,76.00
2018-10-05T07:22:35.085Z,76.10
2018-10-05T07:25:02.631Z,75.90
2018-10-05T07:27:30.170Z,75.90
2018-10-05T07:29:57.857Z,75.40
2018-10-05T07:32:25.389Z,75.40
2018-10-05T07:34:53.030Z,75.60
2018-10-05T07:37:20.589Z,75.30
2018-10-05T07:39:48.251Z,74.90
2018-10-05T07:42:15.820Z,75.10
2018-10-05T07:44:43.457Z,74.80
2018-10-05T07:47:11.025Z,75.30
2018-10-05T07:49:38.549Z,75.20
2018-10-05T07:52:06.206Z,74.90
2018-10-05T07:54:33.812Z,75.00
2018-10-05T07:57:01.426Z,74.60
2018-10-05T07:59:28.986Z,74.90
2018-10-05T08:01:56.588Z,74.80
2018-10-05T08:04:24.144Z,74.70
2018-10-05T08:06:51.670Z,74.90
2018-10-05T08:09:19.240Z,74.70
2018-10-05T08:11:46.783Z,74.50
2018-10-05T08:14:14.421Z,74.20
2018-10-05T08:16:42.043Z,74.10
2018-10-05T08:19:09.730Z,74.30
2018-10-05T08:21:37.523Z,73.70
2018-10-05T08:24:05.153Z,73.90
2018-10-05T08:26:32.802Z,74.00
2018-10-05T08:29:00.426Z,74.20
2018-10-05T08:31:28.026Z,73.40
2018-10-05T08:33:55.623Z,74.10
2018-10-05T08:36:23.161Z,73.30
2018-10-05T08:38:50.912Z,73.60
2018-10-05T08:41:18.510Z,73.40
2018-10-05T08:43:46.075Z,73.20
2018-10-05T08:46:13.641Z,73.10
2018-10-05T08:48:41.130Z,73.10
2018-10-05T08:51:08.721Z,73.10
2018-10-05T08:53:36.350Z,73.20
2018-10-05T08:56:03.883Z,73.30
2018-10-05T08:58:31.463Z,73.30
2018-10-05T09:00:58.963Z,72.10
2018-10-05T09:03:26.497Z,72.40
2018-10-05T09:05:54.087Z,72.80
2018-10-05T09:08:21.612Z,72.50
2018-10-05T09:10:49.191Z,72.40
2018-10-05T09:13:16.779Z,72.40
2018-10-05T09:15:44.343Z,71.70
2018-10-05T09:18:11.906Z,71.10
2018-10-05T09:20:39.522Z,70.60
2018-10-05T09:23:07.530Z,69.60
2018-10-05T09:25:35.117Z,68.50
2018-10-05T09:28:02.881Z,67.80
2018-10-05T09:30:30.412Z,63.70
2018-10-05T09:32:57.894Z,59.80
2018-10-05T09:35:25.440Z,57.90
2018-10-05T09:37:53.189Z,56.00
2018-10-05T09:40:20.780Z,54.90
2018-10-05T09:42:48.357Z,54.50
2018-10-05T09:45:16.059Z,55.80
2018-10-05T09:47:43.623Z,56.00
2018-10-05T09:50:11.190Z,54.40
2018-10-05T09:52:38.964Z,51.30
2018-10-05T09:55:06.491Z,48.90
2018-10-05T09:57:34.004Z,46.40
2018-10-05T10:00:01.730Z,45.30
2018-10-05T10:02:34.760Z,44.20
2018-10-05T10:05:02.389Z,44.10
2018-10-05T10:07:30.006Z,44.90
2018-10-05T10:09:58.695Z,44.70
2018-10-05T10:12:26.330Z,44.10
2018-10-05T10:14:53.880Z,42.40
2018-10-05T10:17:21.405Z,40.80
2018-10-05T10:19:48.941Z,38.30
2018-10-05T10:22:16.523Z,36.10
2018-10-05T10:24:44.205Z,34.10
2018-10-05T10:27:11.738Z,32.30
2018-10-05T10:29:39.214Z,30.80
2018-10-05T10:32:06.804Z,29.80
2018-10-05T10:34:34.481Z,28.60
2018-10-05T10:37:02.007Z,27.30
2018-10-05T10:39:29.527Z,26.30
2018-10-05T10:41:57.073Z,26.20
2018-10-05T10:44:24.565Z,25.50
2018-10-05T10:46:52.136Z,25.00
2018-10-05T10:49:19.663Z,24.30
2018-10-05T10:51:47.234Z,24.10
2018-10-05T10:54:14.962Z,23.40
2018-10-05T10:56:42.421Z,23.70
2018-10-05T10:59:10.003Z,22.80
2018-10-05T11:01:37.592Z,22.80
2018-10-05T11:04:05.259Z,22.50
2018-10-05T11:06:32.763Z,22.20
2018-10-05T11:09:00.388Z,22.20
2018-10-05T11:11:27.991Z,22.10
2018-10-05T11:13:55.559Z,21.70
2018-10-05T11:16:23.157Z,21.50
2018-10-05T11:18:50.694Z,21.80
2018-10-05T11:21:18.276Z,21.70
2018-10-05T11:23:45.894Z,21.80
2018-10-05T11:26:13.457Z,21.30
2018-10-05T11:28:41.000Z,21.40
2018-10-05T11:31:08.592Z,21.00
2018-10-05T11:33:36.253Z,21.10
2018-10-05T11:36:03.789Z,21.10
2018-10-05T11:38:31.435Z,21.30
2018-10-05T11:40:59.076Z,21.40
2018-10-05T11:43:26.640Z,23.90
2018-10-05T11:45:54.271Z,26.80
2018-10-05T11:48:21.850Z,29.80
2018-10-05T11:50:49.471Z,33.00
2018-10-05T11:53:16.990Z,35.20
2018-10-05T11:55:44.581Z,37.00
2018-10-05T11:58:12.198Z,38.90
2018-10-05T12:00:39.757Z,38.90
2018-10-05T12:03:07.449Z,37.00
2018-10-05T12:05:35.549Z,37.00
2018-10-05T12:08:03.146Z,37.90
2018-10-05T12:10:30.764Z,39.10
2018-10-05T12:12:58.346Z,39.60
2018-10-05T12:15:26.179Z,39.00
2018-10-05T12:17:53.766Z,39.30
2018-10-05T12:20:21.342Z,39.90
2018-10-05T12:22:49.057Z,41.80
2018-10-05T12:25:16.819Z,43.20
2018-10-05T12:27:44.417Z,44.40
2018-10-05T12:30:11.974Z,45.50
2018-10-05T12:32:40.029Z,46.10
2018-10-05T12:35:07.560Z,46.00
2018-10-05T12:37:35.117Z,45.90
2018-10-05T12:40:02.855Z,45.90
2018-10-05T12:42:30.430Z,46.10
2018-10-05T12:44:58.016Z,46.30
2018-10-05T12:47:25.588Z,45.70
2018-10-05T12:49:53.159Z,43.70
2018-10-05T12:52:20.776Z,42.20
2018-10-05T12:54:48.334Z,42.80
2018-10-05T12:57:15.906Z,42.20
2018-10-05T12:59:43.710Z,39.70
2018-10-05T13:02:11.225Z,38.50
2018-10-05T13:04:38.837Z,36.00
2018-10-05T13:07:06.470Z,33.40
2018-10-05T13:09:33.985Z,31.40
2018-10-05T13:12:01.533Z,29.70
2018-10-05T13:14:29.090Z,28.70
2018-10-05T13:16:56.692Z,26.70
2018-10-05T13:19:24.275Z,26.20
2018-10-05T13:21:51.873Z,25.70
2018-10-05T13:24:19.577Z,26.20
2018-10-05T13:26:47.134Z,26.40
2018-10-05T13:29:14.733Z,26.20
2018-10-05T13:31:42.370Z,26.50
2018-10-05T13:34:10.059Z,26.70
2018-10-05T13:36:37.548Z,27.20
2018-10-05T13:39:08.126Z,27.80
2018-10-05T13:41:35.803Z,29.90
2018-10-05T13:44:03.377Z,31.40
2018-10-05T13:46:31.041Z,32.30
2018-10-05T13:48:58.625Z,33.50
2018-10-05T13:51:26.157Z,33.80
2018-10-05T13:53:53.693Z,35.00
2018-10-05T13:56:21.262Z,35.20
2018-10-05T13:58:48.842Z,36.60
2018-10-05T14:01:16.553Z,36.20
2018-10-05T14:03:44.153Z,36.90
2018-10-05T14:06:11.702Z,37.60
2018-10-05T14:08:39.274Z,38.60
2018-10-05T14:11:06.838Z,39.10
2018-10-05T14:13:34.448Z,38.60
2018-10-05T14:16:01.993Z,39.10
2018-10-05T14:18:29.554Z,38.60
2018-10-05T14:20:57.171Z,40.00
2018-10-05T14:23:24.764Z,39.80
2018-10-05T14:25:52.423Z,39.50
2018-10-05T14:28:19.990Z,41.10
2018-10-05T14:30:47.610Z,40.90
2018-10-05T14:33:15.226Z,41.20
2018-10-05T14:35:42.797Z,41.80
2018-10-05T14:38:10.562Z,42.70
2018-10-05T14:40:38.254Z,43.40
2018-10-05T14:43:05.838Z,44.50
2018-10-05T14:45:33.441Z,45.60
2018-10-05T14:48:01.036Z,46.30
2018-10-05T14:50:28.641Z,45.70
2018-10-05T14:52:56.565Z,46.10
2018-10-05T14:55:24.284Z,47.20
2018-10-05T14:57:51.821Z,47.50
2018-10-05T15:00:19.390Z,46.80
2018-10-05T15:02:47.951Z,48.10
2018-10-05T15:05:15.529Z,48.40
2018-10-05T15:07:43.121Z,48.50
2018-10-05T15:10:10.754Z,49.70
2018-10-05T15:12:38.314Z,49.90
2018-10-05T15:15:07.053Z,50.30
2018-10-05T15:17:35.250Z,50.50
2018-10-05T15:20:04.075Z,51.80
2018-10-05T15:22:32.204Z,51.40
2018-10-05T15:25:00.682Z,52.60
2018-10-05T15:27:28.940Z,53.40
2018-10-05T15:29:58.028Z,53.90
2018-10-05T15:32:26.335Z,54.80
2018-10-05T15:34:54.690Z,54.50
2018-10-05T15:37:22.892Z,54.70
2018-10-05T15:39:52.583Z,55.00
2018-10-05T15:42:22.570Z,54.80
2018-10-05T15:44:52.281Z,55.50
2018-10-05T15:47:19.909Z,56.20
2018-10-05T15:49:47.592Z,56.50
2018-10-05T15:52:15.454Z,56.80
2018-10-05T15:54:43.200Z,56.80
2018-10-05T15:57:10.808Z,57.60
2018-10-05T15:59:38.725Z,58.20
2018-10-05T16:02:06.455Z,58.70
2018-10-05T16:04:34.030Z,59.50
2018-10-05T16:07:01.595Z,59.60
2018-10-05T16:09:29.189Z,59.80
2018-10-05T16:11:56.860Z,60.20
2018-10-05T16:14:24.388Z,61.00
2018-10-05T16:16:51.904Z,61.30
2018-10-05T16:19:19.553Z,62.10
2018-10-05T16:21:47.282Z,62.60
2018-10-05T16:24:19.053Z,62.70
2018-10-05T16:26:46.668Z,63.00
2018-10-05T16:29:14.364Z,63.40
2018-10-05T16:31:42.181Z,63.70
2018-10-05T16:34:09.845Z,63.50
2018-10-05T16:36:37.445Z,64.00
2018-10-05T16:39:06.490Z,64.50
2018-10-05T16:41:34.058Z,65.10
2018-10-05T16:44:01.724Z,65.50
2018-10-05T16:46:29.369Z,65.70
2018-10-05T16:48:57.395Z,66.10
2018-10-05T16:51:25.711Z,66.30
2018-10-05T16:53:54.012Z,66.80
2018-10-05T16:56:22.038Z,67.20
2018-10-05T16:58:50.066Z,67.40
2018-10-05T17:01:18.117Z,67.70
2018-10-05T17:03:46.492Z,67.80
2018-10-05T17:06:14.868Z,67.80
2018-10-05T17:08:46.220Z,68.00
2018-10-05T17:11:14.355Z,68.00
2018-10-05T17:13:42.591Z,68.40
2018-10-05T17:16:11.487Z,68.60
2018-10-05T17:18:39.484Z,69.50
2018-10-05T17:21:07.902Z,69.80
2018-10-05T17:23:36.224Z,69.90
2018-10-05T17:26:04.178Z,70.20
2018-10-05T17:28:33.316Z,70.50
2018-10-05T17:31:02.378Z,70.80
2018-10-05T17:33:30.425Z,71.20
2018-10-05T17:35:58.306Z,71.30
2018-10-05T17:38:26.360Z,71.50
2018-10-05T17:40:54.926Z,71.50
2018-10-05T17:43:23.064Z,71.40
2018-10-05T17:45:50.661Z,71.70
2018-10-05T17:48:18.224Z,71.90
2018-10-05T17:50:45.838Z,72.20
2018-10-05T17:53:13.524Z,72.80
2018-10-05T17:55:41.143Z,72.90
2018-10-05T17:58:08.764Z,73.00
2018-10-05T18:00:36.373Z,73.10
2018-10-05T18:03:04.242Z,73.20
2018-10-05T18:05:31.865Z,73.00
2018-10-05T18:07:59.555Z,73.40
2018-10-05T18:10:27.182Z,73.70
2018-10-05T18:12:54.865Z,73.80
2018-10-05T18:15:22.442Z,73.70
2018-10-05T18:17:50.070Z,73.60
2018-10-05T18:20:17.904Z,73.60
2018-10-05T18:22:45.576Z,73.80
2018-10-05T18:25:13.275Z,73.60
2018-10-05T18:27:40.917Z,73.40
2018-10-05T18:30:08.698Z,73.80
2018-10-05T18:32:36.468Z,73.50
2018-10-05T18:35:04.241Z,73.70
2018-10-05T18:37:31.916Z,73.60
2018-10-05T18:39:59.605Z,73.90
2018-10-05T18:42:27.234Z,74.30
2018-10-05T18:44:54.842Z,74.20
2018-10-05T18:47:22.447Z,74.40
2018-10-05T18:49:50.154Z,74.60
2018-10-05T18:52:17.904Z,74.60
2018-10-05T18:54:45.486Z,74.80
2018-10-05T18:57:16.078Z,74.80
2018-10-05T18:59:43.887Z,74.50
2018-10-05T19:02:12.344Z,74.60
2018-10-05T19:04:40.105Z,74.40
2018-10-05T19:07:08.226Z,74.20
2018-10-05T19:09:36.048Z,74.20
2018-10-05T19:12:03.751Z,74.10
2018-10-05T19:14:31.497Z,74.20
2018-10-05T19:16:59.243Z,74.10
2018-10-05T19:19:27.068Z,74.00
2018-10-05T19:21:54.877Z,74.10
2018-10-05T19:24:22.662Z,73.90
2018-10-05T19:26:50.558Z,74.20
2018-10-05T19:29:18.497Z,74.20
2018-10-05T19:31:46.298Z,74.20
2018-10-05T19:34:14.747Z,74.40
2018-10-05T19:36:42.501Z,74.30
2018-10-05T19:39:11.154Z,74.20
2018-10-05T19:41:39.406Z,74.10
2018-10-05T19:44:07.613Z,74.40
2018-10-05T19:46:35.431Z,74.30
2018-10-05T19:49:03.223Z,73.90
2018-10-05T19:51:30.906Z,73.70
2018-10-05T19:53:58.784Z,73.90
2018-10-05T19:56:26.786Z,74.00
2018-10-05T19:58:54.871Z,74.00
2018-10-05T20:01:23.706Z,73.90
2018-10-05T20:03:51.936Z,73.90
2018-10-05T20:06:20.280Z,73.90
2018-10-05T20:08:48.399Z,73.90
2018-10-05T20:11:16.718Z,74.30
2018-10-05T20:13:44.744Z,74.30
2018-10-05T20:16:12.838Z,74.20
2018-10-05T20:18:41.168Z,74.50
2018-10-05T20:21:09.409Z,74.30
2018-10-05T20:23:37.822Z,74.50
2018-10-05T20:26:06.221Z,74.50
2018-10-05T20:28:34.526Z,74.40
2018-10-05T20:31:02.946Z,74.60
2018-10-05T20:33:31.106Z,74.50
2018-10-05T20:35:59.325Z,74.70
2018-10-05T20:38:27.441Z,74.80
2018-10-05T20:40:55.027Z,74.80
2018-10-05T20:43:23.224Z,74.70
2018-10-05T20:45:51.118Z,74.50
2018-10-05T20:48:19.262Z,74.40
2018-10-05T20:50:47.282Z,74.40
2018-10-05T20:53:15.313Z,74.50
2018-10-05T20:55:43.427Z,74.70
2018-10-05T20:58:11.480Z,74.90
2018-10-05T21:00:39.459Z,74.90
2018-10-05T21:03:07.264Z,75.00
2018-10-05T21:05:35.272Z,74.80
2018-10-05T21:08:03.271Z,74.50
2018-10-05T21:10:31.232Z,74.70
2018-10-05T21:12:59.354Z,74.60
2018-10-05T21:15:27.382Z,74.50
2018-10-05T21:17:55.300Z,74.60
2018-10-05T21:20:23.114Z,74.40
2018-10-05T21:22:51.068Z,74.30
2018-10-05T21:25:19.065Z,74.20
2018-10-05T21:27:47.085Z,74.20
2018-10-05T21:30:15.063Z,74.10
2018-10-05T21:32:43.109Z,74.10
2018-10-05T21:35:11.149Z,74.10
2018-10-05T21:37:39.265Z,74.10
2018-10-05T21:40:07.186Z,74.20
2018-10-05T21:42:35.186Z,74.40
2018-10-05T21:45:03.241Z,74.50
2018-10-05T21:47:31.244Z,74.80
2018-10-05T21:49:59.457Z,75.00
2018-10-05T21:52:27.512Z,75.00
2018-10-05T21:54:55.685Z,75.00
2018-10-05T21:57:23.793Z,75.00
2018-10-05T21:59:51.810Z,75.20
2018-10-05T22:02:19.605Z,75.00
2018-10-05T22:04:47.670Z,75.00
2018-10-05T22:07:15.609Z,74.80
2018-10-05T22:09:43.604Z,74.60
2018-10-05T22:12:11.541Z,74.40
2018-10-05T22:14:39.640Z,74.50
2018-10-05T22:17:08.010Z,74.00
2018-10-05T22:19:35.974Z,74.20
2018-10-05T22:22:03.903Z,74.20
2018-10-05T22:24:31.931Z,74.10
2018-10-05T22:26:59.860Z,74.10
2018-10-05T22:29:28.015Z,74.20
2018-10-05T22:31:55.874Z,74.00
2018-10-05T22:34:23.867Z,73.90
2018-10-05T22:36:51.826Z,74.10
2018-10-05T22:39:19.812Z,74.50
2018-10-05T22:41:47.816Z,74.70
2018-10-05T22:44:15.765Z,74.60
2018-10-05T22:46:43.590Z,74.60
2018-10-05T22:49:11.247Z,74.40
2018-10-05T22:51:39.125Z,74.20
2018-10-05T22:54:06.817Z,74.20
2018-10-05T22:56:34.588Z,74.60
2018-10-05T22:59:02.268Z,74.50
2018-10-05T23:01:30.146Z,74.60
2018-10-05T23:03:57.819Z,74.80
2018-10-05T23:06:25.586Z,74.90
2018-10-05T23:08:53.321Z,74.80
2018-10-05T23:11:21.034Z,75.00
2018-10-05T23:13:48.666Z,75.10
2018-10-05T23:16:16.313Z,75.20
2018-10-05T23:18:44.034Z,75.10
2018-10-05T23:21:11.780Z,74.60
2018-10-05T23:23:39.420Z,74.30
2018-10-05T23:26:07.085Z,74.60
2018-10-05T23:28:34.992Z,74.80
2018-10-05T23:31:02.583Z,74.80
2018-10-05T23:33:30.297Z,74.70
2018-10-05T23:35:58.004Z,74.60
2018-10-05T23:38:25.648Z,74.80
2018-10-05T23:40:53.285Z,74.60
2018-10-05T23:43:20.821Z,74.70
2018-10-05T23:45:48.705Z,74.50
2018-10-05T23:48:16.242Z,74.30
2018-10-05T23:50:43.894Z,74.30
2018-10-05T23:53:11.472Z,74.20
2018-10-05T23:55:39.086Z,74.10
2018-10-05T23:58:06.666Z,74.20
